Time;durP1;ratioP1;P1;durP2;ratioP2;P2;SDS_P1;SDS_P2;PMS_P1;PMS_P2;Temp;Humidity;BMP_temperature;BMP_pressure;BME280_temperature;BME280_humidity;BME280_pressure;Samples;Min_cycle;Max_cycle;Signal;HPM_P1;HPM_P2
2023/08/11 00:00:09;;;;;;;6.45;2.25;;;;;;;;;;5050364;28;20048;-78
2023/08/11 00:02:38;;;;;;;4.60;2.78;;;;;;;;;;5032736;28;20129;-78
2023/08/11 00:05:04;;;;;;;4.97;2.67;;;;;;;;;;5048374;28;20035;-77
2023/08/11 00:07:30;;;;;;;5.43;2.60;;;;;;;;;;5047551;28;20029;-78
2023/08/11 00:09:55;;;;;;;4.45;2.55;;;;;;;;;;5047608;28;20087;-79
2023/08/11 00:12:21;;;;;;;4.57;2.72;;;;;;;;;;5046944;28;20033;-78
2023/08/11 00:14:47;;;;;;;5.15;2.75;;;;;;;;;;5031834;28;20112;-78
2023/08/11 00:17:13;;;;;;;4.95;2.30;;;;;;;;;;5047029;28;20022;-78
2023/08/11 00:19:38;;;;;;;4.45;2.50;;;;;;;;;;5046391;28;20033;-77
2023/08/11 00:22:05;;;;;;;4.25;2.45;;;;;;;;;;5045832;28;20029;-78
2023/08/11 00:24:31;;;;;;;4.30;2.35;;;;;;;;;;5030970;28;20417;-78
2023/08/11 00:26:57;;;;;;;5.00;2.75;;;;;;;;;;5046101;28;20025;-76
2023/08/11 00:29:22;;;;;;;8.32;3.10;;;;;;;;;;5045881;28;20029;-77
2023/08/11 00:31:48;;;;;;;3.67;2.85;;;;;;;;;;5046054;28;20439;-77
2023/08/11 00:34:13;;;;;;;3.20;2.47;;;;;;;;;;5046156;28;20163;-78
2023/08/11 00:36:39;;;;;;;3.83;3.00;;;;;;;;;;5045963;28;20060;-77
2023/08/11 00:39:04;;;;;;;5.07;2.80;;;;;;;;;;5046028;28;20033;-78
2023/08/11 00:41:30;;;;;;;6.18;2.65;;;;;;;;;;5045702;28;20017;-77
2023/08/11 00:43:56;;;;;;;2.60;2.40;;;;;;;;;;5031007;28;20029;-76
2023/08/11 00:46:23;;;;;;;2.72;2.47;;;;;;;;;;5046177;28;20300;-76
2023/08/11 00:48:53;;;;;;;2.53;2.25;;;;;;;;;;5033186;28;20021;-76
2023/08/11 00:51:22;;;;;;;4.05;3.60;;;;;;;;;;5050301;28;20053;-76
2023/08/11 00:53:49;;;;;;;4.50;3.25;;;;;;;;;;5051131;28;20075;-76
2023/08/11 00:56:15;;;;;;;3.30;2.60;;;;;;;;;;5048161;28;20036;-76
2023/08/11 00:58:43;;;;;;;4.10;2.67;;;;;;;;;;5031114;28;20026;-76
2023/08/11 01:01:10;;;;;;;4.68;3.13;;;;;;;;;;5030507;28;20068;-76
2023/08/11 01:03:35;;;;;;;4.57;2.50;;;;;;;;;;5045209;28;20038;-76
2023/08/11 01:06:23;;;;;;;5.43;2.88;;;;;;;;;;5045428;28;20022;-76
2023/08/11 01:09:11;;;;;;;3.42;2.40;;;;;;;;;;5013276;28;20075;-76
2023/08/11 01:12:16;;;;;;;2.78;2.28;;;;;;;;;;5028752;28;20029;-76
2023/08/11 01:15:10;;;;;;;4.38;2.20;;;;;;;;;;4998104;28;20048;-76
2023/08/11 01:17:38;;;;;;;2.47;2.28;;;;;;;;;;5000911;28;20468;-76
2023/08/11 01:20:10;;;;;;;4.18;2.60;;;;;;;;;;5033521;28;20028;-76
2023/08/11 01:22:38;;;;;;;4.80;2.25;;;;;;;;;;5011895;28;20022;-76
2023/08/11 01:25:08;;;;;;;3.65;2.55;;;;;;;;;;5028469;28;20560;-76
2023/08/11 01:27:47;;;;;;;4.30;2.40;;;;;;;;;;5028267;28;20014;-76
2023/08/11 01:30:14;;;;;;;3.10;2.13;;;;;;;;;;5029790;28;20053;-76
2023/08/11 01:32:40;;;;;;;6.45;2.72;;;;;;;;;;5011751;28;20072;-76
2023/08/11 01:35:06;;;;;;;3.03;2.30;;;;;;;;;;5029907;28;20041;-76
2023/08/11 01:37:32;;;;;;;4.20;2.22;;;;;;;;;;5029535;28;20377;-76
2023/08/11 01:39:58;;;;;;;4.43;2.50;;;;;;;;;;5011939;28;20026;-76
2023/08/11 01:42:24;;;;;;;2.72;2.15;;;;;;;;;;5028255;28;20350;-76
2023/08/11 01:44:50;;;;;;;5.10;2.20;;;;;;;;;;5012457;28;20036;-75
2023/08/11 01:47:17;;;;;;;2.97;2.47;;;;;;;;;;5031244;28;20040;-76
2023/08/11 01:49:43;;;;;;;4.93;2.33;;;;;;;;;;5015967;28;20108;-76
2023/08/11 01:52:09;;;;;;;2.80;2.60;;;;;;;;;;5016806;28;20825;-76
2023/08/11 01:54:34;;;;;;;3.42;2.47;;;;;;;;;;5031632;28;20139;-76
2023/08/11 01:57:00;;;;;;;6.50;2.90;;;;;;;;;;5031415;28;20393;-76
2023/08/11 01:59:25;;;;;;;3.70;2.45;;;;;;;;;;5031181;28;20429;-78
2023/08/11 02:01:51;;;;;;;2.92;2.00;;;;;;;;;;5014920;28;20390;-77
2023/08/11 02:04:18;;;;;;;6.50;2.58;;;;;;;;;;5033019;28;20347;-78
2023/08/11 02:06:45;;;;;;;4.32;2.38;;;;;;;;;;5032032;28;20036;-78
2023/08/11 02:09:12;;;;;;;3.58;2.10;;;;;;;;;;5032753;28;20094;-78
2023/08/11 02:11:38;;;;;;;3.47;2.30;;;;;;;;;;5015122;28;20103;-77
2023/08/11 02:14:08;;;;;;;4.63;2.50;;;;;;;;;;5015611;28;20057;-75
2023/08/11 02:16:35;;;;;;;4.35;2.58;;;;;;;;;;5031894;28;20486;-75
2023/08/11 02:19:01;;;;;;;5.80;2.50;;;;;;;;;;5016008;28;20142;-75
2023/08/11 02:21:27;;;;;;;5.28;2.33;;;;;;;;;;5031812;28;20021;-75
2023/08/11 02:23:52;;;;;;;3.05;2.75;;;;;;;;;;5032703;28;20025;-77
2023/08/11 02:26:18;;;;;;;5.53;2.42;;;;;;;;;;5032905;28;20059;-76
2023/08/11 02:28:43;;;;;;;2.92;2.25;;;;;;;;;;5031897;28;20669;-75
2023/08/11 02:31:09;;;;;;;4.30;2.78;;;;;;;;;;5014184;28;20528;-76
2023/08/11 02:33:35;;;;;;;4.38;2.50;;;;;;;;;;5030919;28;20033;-76
2023/08/11 02:36:01;;;;;;;2.38;2.00;;;;;;;;;;5014515;28;20462;-76
2023/08/11 02:38:27;;;;;;;3.63;2.30;;;;;;;;;;5014532;28;20037;-77
2023/08/11 02:40:53;;;;;;;8.90;2.63;;;;;;;;;;5032615;28;20037;-77
2023/08/11 02:43:18;;;;;;;4.35;2.45;;;;;;;;;;5032559;28;20021;-77
2023/08/11 02:45:44;;;;;;;2.53;2.33;;;;;;;;;;5014376;28;20489;-77
2023/08/11 02:48:09;;;;;;;3.63;2.63;;;;;;;;;;5032636;28;20036;-77
2023/08/11 02:50:35;;;;;;;4.55;2.30;;;;;;;;;;5014446;28;20367;-77
2023/08/11 02:53:00;;;;;;;2.88;2.35;;;;;;;;;;5031031;28;20099;-77
2023/08/11 02:55:26;;;;;;;3.88;2.35;;;;;;;;;;5031088;28;20205;-77
2023/08/11 02:57:51;;;;;;;4.97;2.70;;;;;;;;;;5030286;28;20052;-75
2023/08/11 03:00:17;;;;;;;5.05;2.40;;;;;;;;;;5031112;28;20810;-76
2023/08/11 03:02:47;;;;;;;3.42;2.00;;;;;;;;;;5030635;28;20033;-76
2023/08/11 03:05:14;;;;;;;2.75;2.25;;;;;;;;;;5014132;28;20040;-75
2023/08/11 03:07:40;;;;;;;3.30;1.95;;;;;;;;;;5014129;28;20131;-75
2023/08/11 03:10:07;;;;;;;4.53;2.70;;;;;;;;;;5032041;28;20522;-75
2023/08/11 03:12:33;;;;;;;4.25;2.20;;;;;;;;;;5014084;28;20025;-76
2023/08/11 03:14:58;;;;;;;3.90;2.17;;;;;;;;;;5013883;28;20391;-76
2023/08/11 03:17:24;;;;;;;2.40;2.20;;;;;;;;;;5014083;28;20466;-75
2023/08/11 03:19:50;;;;;;;8.15;2.63;;;;;;;;;;5014039;28;20030;-76
2023/08/11 03:22:17;;;;;;;4.45;2.80;;;;;;;;;;5030765;28;20040;-75
2023/08/11 03:24:47;;;;;;;3.78;2.42;;;;;;;;;;5032227;28;20497;-76
2023/08/11 03:27:12;;;;;;;2.50;2.30;;;;;;;;;;5032503;28;20327;-76
2023/08/11 03:29:38;;;;;;;10.00;3.25;;;;;;;;;;5032865;28;20055;-75
2023/08/11 03:32:04;;;;;;;6.65;3.20;;;;;;;;;;5018914;28;20040;-75
2023/08/11 03:34:30;;;;;;;6.18;2.40;;;;;;;;;;5017859;28;20029;-75
2023/08/11 03:36:56;;;;;;;3.10;2.55;;;;;;;;;;5034393;28;20420;-75
2023/08/11 03:39:21;;;;;;;3.40;2.40;;;;;;;;;;5032398;28;20025;-76
2023/08/11 03:41:47;;;;;;;2.92;2.45;;;;;;;;;;5014103;28;20394;-76
2023/08/11 03:44:12;;;;;;;5.70;3.17;;;;;;;;;;5032795;28;20040;-78
2023/08/11 03:46:38;;;;;;;5.10;2.47;;;;;;;;;;5034141;28;20172;-77
2023/08/11 03:49:05;;;;;;;2.97;2.50;;;;;;;;;;5016399;28;20029;-77
2023/08/11 03:51:30;;;;;;;6.03;2.80;;;;;;;;;;5040697;28;20036;-77
2023/08/11 03:53:58;;;;;;;12.00;3.60;;;;;;;;;;5023427;28;20366;-78
2023/08/11 03:56:24;;;;;;;3.40;2.83;;;;;;;;;;5019842;28;20068;-77
2023/08/11 03:58:50;;;;;;;6.47;4.68;;;;;;;;;;5036248;28;20044;-78
2023/08/11 04:01:16;;;;;;;4.03;2.28;;;;;;;;;;5033221;28;20465;-78
2023/08/11 04:03:42;;;;;;;3.15;2.55;;;;;;;;;;5029965;28;20057;-77
2023/08/11 04:06:08;;;;;;;4.13;2.90;;;;;;;;;;5013463;28;20021;-77
2023/08/11 04:08:33;;;;;;;7.82;3.00;;;;;;;;;;5030983;28;20035;-77
2023/08/11 04:10:59;;;;;;;7.55;2.50;;;;;;;;;;5028628;28;20429;-77
2023/08/11 04:13:25;;;;;;;8.88;3.38;;;;;;;;;;5013030;28;20119;-77
2023/08/11 04:15:50;;;;;;;6.63;3.20;;;;;;;;;;5029224;28;20029;-77
2023/08/11 04:18:16;;;;;;;3.90;2.65;;;;;;;;;;5031149;28;20033;-77
2023/08/11 04:20:41;;;;;;;3.03;2.47;;;;;;;;;;5031085;28;20354;-76
2023/08/11 04:23:07;;;;;;;5.55;2.97;;;;;;;;;;5031727;28;20116;-77
2023/08/11 04:25:33;;;;;;;11.00;4.32;;;;;;;;;;5030929;28;20053;-78
2023/08/11 04:28:00;;;;;;;5.20;2.58;;;;;;;;;;5031282;28;20031;-77
2023/08/11 04:30:26;;;;;;;8.57;2.83;;;;;;;;;;5029182;28;20025;-77
2023/08/11 04:32:52;;;;;;;4.38;2.35;;;;;;;;;;5029221;28;20086;-78
2023/08/11 04:35:18;;;;;;;7.93;3.20;;;;;;;;;;5029549;28;20033;-77
2023/08/11 04:37:44;;;;;;;5.30;2.90;;;;;;;;;;5012357;28;20029;-77
2023/08/11 04:40:10;;;;;;;6.15;2.50;;;;;;;;;;5028892;28;20035;-78
2023/08/11 04:42:40;;;;;;;5.57;2.50;;;;;;;;;;5030167;28;20038;-77
2023/08/11 04:45:06;;;;;;;3.03;2.70;;;;;;;;;;5030786;28;20041;-79
2023/08/11 04:47:32;;;;;;;5.35;2.90;;;;;;;;;;5013190;28;20033;-78
2023/08/11 04:49:58;;;;;;;5.13;2.70;;;;;;;;;;5012838;28;20536;-79
2023/08/11 04:52:24;;;;;;;62.20;7.28;;;;;;;;;;5030357;28;20076;-79
2023/08/11 04:54:49;;;;;;;8.88;2.85;;;;;;;;;;5028478;28;20083;-77
2023/08/11 04:57:14;;;;;;;3.28;2.50;;;;;;;;;;5030038;28;20061;-77
2023/08/11 04:59:40;;;;;;;3.45;2.50;;;;;;;;;;5028684;28;20033;-77
2023/08/11 05:02:07;;;;;;;6.65;2.75;;;;;;;;;;5028720;28;20037;-77
2023/08/11 05:04:33;;;;;;;2.40;2.20;;;;;;;;;;5029005;28;20033;-77
2023/08/11 05:06:59;;;;;;;12.52;3.92;;;;;;;;;;5012154;28;20052;-75
2023/08/11 05:09:26;;;;;;;4.60;2.53;;;;;;;;;;5032742;28;20107;-76
2023/08/11 05:11:51;;;;;;;18.35;4.00;;;;;;;;;;5031550;28;20037;-76
2023/08/11 05:14:17;;;;;;;4.88;2.58;;;;;;;;;;5030351;28;20025;-76
2023/08/11 05:16:49;;;;;;;4.00;2.45;;;;;;;;;;5026957;28;20045;-77
2023/08/11 05:19:14;;;;;;;;;;;;;;;;;;5003110;28;20120;-78
2023/08/11 05:21:40;;;;;;;3.50;2.60;;;;;;;;;;5013697;28;20012;-76
2023/08/11 05:24:07;;;;;;;9.43;3.13;;;;;;;;;;5032063;28;20029;-75
2023/08/11 05:26:34;;;;;;;4.53;2.90;;;;;;;;;;5035713;28;20108;-73
2023/08/11 05:28:59;;;;;;;4.15;2.60;;;;;;;;;;5052783;28;20120;-74
2023/08/11 05:31:25;;;;;;;7.28;3.45;;;;;;;;;;5036774;28;20148;-73
2023/08/11 05:33:52;;;;;;;5.18;2.30;;;;;;;;;;5031335;28;20033;-75
2023/08/11 05:36:18;;;;;;;3.92;2.65;;;;;;;;;;5043406;28;20131;-76
2023/08/11 05:38:45;;;;;;;6.07;2.60;;;;;;;;;;5051635;28;20173;-77
2023/08/11 05:41:11;;;;;;;4.32;2.53;;;;;;;;;;5053100;28;20046;-77
2023/08/11 05:43:36;;;;;;;16.02;4.50;;;;;;;;;;5054118;28;20474;-77
2023/08/11 05:46:03;;;;;;;5.05;2.78;;;;;;;;;;5042437;28;20059;-74
2023/08/11 05:48:28;;;;;;;4.10;2.47;;;;;;;;;;5025985;28;20118;-76
2023/08/11 05:50:54;;;;;;;3.70;2.83;;;;;;;;;;5031676;28;20459;-75
2023/08/11 05:53:20;;;;;;;5.97;3.80;;;;;;;;;;5032037;28;20098;-76
2023/08/11 05:55:45;;;;;;;6.22;2.83;;;;;;;;;;5036320;28;20472;-76
2023/08/11 05:58:11;;;;;;;8.07;2.92;;;;;;;;;;5033025;28;20032;-77
2023/08/11 06:00:36;;;;;;;4.38;2.92;;;;;;;;;;5046498;28;20524;-76
2023/08/11 06:03:02;;;;;;;11.80;4.20;;;;;;;;;;5040933;28;20099;-75
2023/08/11 06:05:27;;;;;;;7.85;3.85;;;;;;;;;;5046783;28;20030;-75
2023/08/11 06:07:53;;;;;;;14.07;3.88;;;;;;;;;;5029547;28;20512;-77
2023/08/11 06:10:19;;;;;;;3.40;2.60;;;;;;;;;;5025513;28;20034;-74
2023/08/11 06:12:44;;;;;;;10.82;3.28;;;;;;;;;;5012992;28;20109;-76
2023/08/11 06:15:10;;;;;;;6.10;2.70;;;;;;;;;;5029703;28;20339;-77
2023/08/11 06:17:36;;;;;;;6.13;2.65;;;;;;;;;;5035444;28;20096;-76
2023/08/11 06:20:04;;;;;;;7.10;2.60;;;;;;;;;;5032668;28;20044;-77
2023/08/11 06:22:30;;;;;;;11.13;3.17;;;;;;;;;;5049349;28;20427;-77
2023/08/11 06:24:55;;;;;;;4.80;3.08;;;;;;;;;;5049793;28;20069;-78
2023/08/11 06:27:21;;;;;;;6.13;2.83;;;;;;;;;;5048933;28;20095;-77
2023/08/11 06:29:49;;;;;;;4.45;2.50;;;;;;;;;;5030173;28;20051;-76
2023/08/11 06:32:14;;;;;;;5.75;2.67;;;;;;;;;;5012110;28;20026;-77
2023/08/11 06:34:40;;;;;;;5.57;2.83;;;;;;;;;;5030689;28;20037;-77
2023/08/11 06:37:05;;;;;;;6.22;2.72;;;;;;;;;;5046496;28;20360;-76
2023/08/11 06:39:31;;;;;;;8.88;3.03;;;;;;;;;;5041539;28;20159;-75
2023/08/11 06:41:57;;;;;;;4.18;2.65;;;;;;;;;;5031145;28;20045;-77
2023/08/11 06:44:22;;;;;;;7.50;3.00;;;;;;;;;;5039596;28;20043;-77
2023/08/11 06:46:48;;;;;;;4.18;2.40;;;;;;;;;;5043420;28;20025;-78
2023/08/11 06:49:13;;;;;;;4.35;2.60;;;;;;;;;;5048579;28;20040;-76
2023/08/11 06:51:39;;;;;;;4.47;2.88;;;;;;;;;;5038121;28;20040;-76
2023/08/11 06:54:04;;;;;;;7.88;3.00;;;;;;;;;;5034297;28;20143;-76
2023/08/11 06:56:30;;;;;;;4.68;2.88;;;;;;;;;;5050958;28;20036;-77
2023/08/11 06:58:55;;;;;;;4.13;3.08;;;;;;;;;;5043944;28;20140;-76
2023/08/11 07:01:21;;;;;;;4.68;2.88;;;;;;;;;;5030208;28;20516;-75
2023/08/11 07:03:47;;;;;;;3.47;2.38;;;;;;;;;;5038430;28;20075;-79
2023/08/11 07:06:13;;;;;;;3.17;2.65;;;;;;;;;;5043217;28;20060;-75
2023/08/11 07:08:40;;;;;;;4.88;2.60;;;;;;;;;;5029505;28;20029;-77
2023/08/11 07:11:08;;;;;;;5.43;3.40;;;;;;;;;;5029306;28;20024;-81
2023/08/11 07:13:35;;;;;;;6.65;2.65;;;;;;;;;;5015951;28;20211;-78
2023/08/11 07:16:01;;;;;;;9.10;2.97;;;;;;;;;;5036078;28;20029;-78
2023/08/11 07:18:30;;;;;;;9.38;3.45;;;;;;;;;;5045801;28;20025;-78
2023/08/11 07:20:55;;;;;;;8.25;3.20;;;;;;;;;;5049902;28;20033;-78
2023/08/11 07:23:27;;;;;;;4.18;2.75;;;;;;;;;;5035181;28;20045;-77
2023/08/11 07:25:53;;;;;;;4.30;3.00;;;;;;;;;;5038309;28;20109;-77
2023/08/11 07:28:19;;;;;;;7.43;2.53;;;;;;;;;;5055005;28;20052;-75
2023/08/11 07:30:48;;;;;;;5.18;2.65;;;;;;;;;;5055665;28;20041;-77
2023/08/11 07:33:15;;;;;;;15.30;4.30;;;;;;;;;;5043339;28;20037;-78
2023/08/11 07:35:40;;;;;;;15.43;4.75;;;;;;;;;;5041883;28;20116;-76
2023/08/11 07:38:06;;;;;;;5.03;3.05;;;;;;;;;;5058501;28;20044;-77
2023/08/11 07:40:32;;;;;;;13.32;4.57;;;;;;;;;;5055472;28;20025;-79
2023/08/11 07:43:00;;;;;;;4.93;2.72;;;;;;;;;;5048825;28;20108;-78
2023/08/11 07:45:27;;;;;;;10.23;3.40;;;;;;;;;;5026855;28;20033;-78
2023/08/11 07:47:54;;;;;;;6.05;2.78;;;;;;;;;;5039040;28;20033;-81
2023/08/11 07:50:23;;;;;;;7.75;2.92;;;;;;;;;;5064161;28;20092;-79
2023/08/11 07:52:49;;;;;;;7.90;2.70;;;;;;;;;;5022841;28;20502;-75
2023/08/11 07:55:15;;;;;;;11.50;3.00;;;;;;;;;;5043485;28;20041;-77
2023/08/11 07:57:42;;;;;;;3.47;2.92;;;;;;;;;;5013352;28;20037;-79
2023/08/11 08:00:16;;;;;;;3.20;2.38;;;;;;;;;;5008872;28;20498;-77
2023/08/11 08:02:46;;;;;;;8.07;3.72;;;;;;;;;;5023609;28;20119;-79
2023/08/11 08:05:13;;;;;;;4.05;2.60;;;;;;;;;;5026813;28;20033;-80
2023/08/11 08:07:40;;;;;;;3.67;2.40;;;;;;;;;;5012371;28;20029;-81
2023/08/11 08:10:12;;;;;;;6.68;2.58;;;;;;;;;;5046989;28;20033;-81
2023/08/11 08:12:42;;;;;;;5.25;3.10;;;;;;;;;;5015312;28;20105;-80
2023/08/11 08:15:10;;;;;;;4.25;2.95;;;;;;;;;;5035726;28;20045;-79
2023/08/11 08:17:44;;;;;;;5.53;2.75;;;;;;;;;;5044587;28;20099;-77
2023/08/11 08:20:13;;;;;;;10.95;3.38;;;;;;;;;;5012003;28;20039;-76
2023/08/11 08:22:41;;;;;;;7.25;2.75;;;;;;;;;;5019329;28;20025;-77
2023/08/11 08:25:10;;;;;;;7.50;3.22;;;;;;;;;;4994682;28;20061;-77
2023/08/11 08:27:38;;;;;;;6.72;3.58;;;;;;;;;;4992395;28;20061;-75
2023/08/11 08:30:06;;;;;;;6.47;3.65;;;;;;;;;;5012253;28;20041;-77
2023/08/11 08:32:33;;;;;;;4.65;3.22;;;;;;;;;;5048119;28;20090;-78
2023/08/11 08:35:03;;;;;;;10.82;4.78;;;;;;;;;;5040744;28;20037;-82
2023/08/11 08:37:31;;;;;;;5.60;3.83;;;;;;;;;;5024704;28;20057;-79
2023/08/11 08:40:00;;;;;;;6.35;3.08;;;;;;;;;;5034302;28;20033;-81
2023/08/11 08:42:27;;;;;;;6.63;3.00;;;;;;;;;;5042156;28;20448;-79
2023/08/11 08:44:54;;;;;;;4.53;3.63;;;;;;;;;;5019602;28;20092;-79
2023/08/11 08:47:24;;;;;;;3.90;3.35;;;;;;;;;;5050552;28;20025;-78
2023/08/11 08:49:54;;;;;;;6.78;3.47;;;;;;;;;;5034725;28;20087;-79
2023/08/11 08:52:22;;;;;;;4.75;3.00;;;;;;;;;;5033619;28;20083;-78
2023/08/11 08:54:47;;;;;;;5.20;2.55;;;;;;;;;;4999150;28;20155;-78
2023/08/11 08:57:13;;;;;;;4.15;2.67;;;;;;;;;;4996510;28;20022;-78
2023/08/11 08:59:39;;;;;;;3.67;2.20;;;;;;;;;;5009152;28;20465;-78
2023/08/11 09:02:06;;;;;;;5.25;2.15;;;;;;;;;;4998611;28;20046;-78
2023/08/11 09:04:36;;;;;;;5.95;2.22;;;;;;;;;;5013084;28;20033;-78
2023/08/11 09:07:02;;;;;;;4.10;2.38;;;;;;;;;;5025467;28;20187;-80
2023/08/11 09:09:28;;;;;;;4.35;2.28;;;;;;;;;;5029290;28;20108;-81
2023/08/11 09:11:54;;;;;;;4.45;2.25;;;;;;;;;;5011225;28;20030;-79
2023/08/11 09:14:27;;;;;;;4.93;2.47;;;;;;;;;;5011607;28;20022;-77
2023/08/11 09:17:00;;;;;;;5.60;2.35;;;;;;;;;;5011548;28;20040;-78
2023/08/11 09:19:26;;;;;;;5.50;2.97;;;;;;;;;;5038683;28;20089;-80
2023/08/11 09:21:52;;;;;;;6.10;4.40;;;;;;;;;;5011744;28;20030;-79
2023/08/11 09:24:19;;;;;;;3.85;3.03;;;;;;;;;;5012384;28;20210;-77
2023/08/11 09:26:49;;;;;;;5.45;2.45;;;;;;;;;;5033467;28;20174;-79
2023/08/11 09:29:19;;;;;;;4.28;2.20;;;;;;;;;;5024329;28;20063;-80
2023/08/11 09:31:52;;;;;;;7.88;3.25;;;;;;;;;;5015678;28;20029;-79
2023/08/11 09:34:19;;;;;;;5.72;2.40;;;;;;;;;;5025194;28;20042;-79
2023/08/11 09:36:50;;;;;;;4.10;2.60;;;;;;;;;;5006470;28;20038;-77
2023/08/11 09:39:16;;;;;;;7.30;2.92;;;;;;;;;;4994658;28;20032;-79
2023/08/11 09:41:47;;;;;;;5.78;2.92;;;;;;;;;;5021807;28;20029;-78
2023/08/11 09:44:26;;;;;;;5.27;2.50;;;;;;;;;;5013016;28;20024;-78
2023/08/11 09:46:53;;;;;;;4.35;1.98;;;;;;;;;;5032901;28;20316;-79
2023/08/11 09:49:19;;;;;;;2.95;1.80;;;;;;;;;;5009837;28;20029;-77
2023/08/11 09:51:45;;;;;;;5.07;2.13;;;;;;;;;;5000727;28;20032;-77
2023/08/11 09:54:19;;;;;;;5.50;2.47;;;;;;;;;;5028349;28;20063;-78
2023/08/11 09:56:45;;;;;;;4.65;2.53;;;;;;;;;;5039127;28;20044;-77
2023/08/11 09:59:19;;;;;;;3.63;2.30;;;;;;;;;;5033916;28;20526;-77
2023/08/11 10:01:47;;;;;;;3.35;2.20;;;;;;;;;;5046732;28;20026;-78
2023/08/11 10:04:38;;;;;;;3.92;2.15;;;;;;;;;;5042148;28;20108;-79
2023/08/11 10:07:10;;;;;;;;;;;;;;;;;;5031679;28;20068;-77
2023/08/11 10:09:37;;;;;;;6.82;2.90;;;;;;;;;;5011700;28;19940;-78
2023/08/11 10:12:07;;;;;;;2.20;1.80;;;;;;;;;;5018225;28;20363;-80
2023/08/11 10:14:36;;;;;;;2.97;2.03;;;;;;;;;;5028047;28;20079;-80
2023/08/11 10:17:06;;;;;;;2.20;2.00;;;;;;;;;;5018258;28;20470;-80
2023/08/11 10:19:32;;;;;;;2.92;1.95;;;;;;;;;;5038283;28;20386;-80
2023/08/11 10:21:58;;;;;;;3.75;2.10;;;;;;;;;;5043004;28;20025;-77
2023/08/11 10:24:25;;;;;;;2.80;2.15;;;;;;;;;;5020004;28;20056;-79
2023/08/11 10:26:52;;;;;;;5.22;2.17;;;;;;;;;;5016000;28;20061;-78
2023/08/11 10:29:21;;;;;;;5.82;2.40;;;;;;;;;;5035297;28;20754;-78
2023/08/11 10:31:57;;;;;;;2.00;1.85;;;;;;;;;;5011733;28;20163;-79
2023/08/11 10:34:25;;;;;;;3.80;2.30;;;;;;;;;;5037553;28;20103;-79
2023/08/11 10:36:57;;;;;;;6.78;2.47;;;;;;;;;;5033927;28;20124;-80
2023/08/11 10:39:26;;;;;;;2.42;2.22;;;;;;;;;;5018362;28;20040;-80
2023/08/11 10:41:57;;;;;;;4.45;2.42;;;;;;;;;;5032840;28;20040;-82
2023/08/11 10:44:29;;;;;;;5.43;2.55;;;;;;;;;;5032658;28;20021;-79
2023/08/11 10:46:59;;;;;;;7.75;5.13;;;;;;;;;;5031493;28;20033;-78
2023/08/11 10:49:34;;;;;;;4.85;2.20;;;;;;;;;;5034940;28;20118;-77
2023/08/11 10:52:02;;;;;;;2.78;1.83;;;;;;;;;;5048457;28;20057;-80
2023/08/11 10:54:28;;;;;;;4.47;2.30;;;;;;;;;;5019318;28;20037;-76
2023/08/11 10:56:54;;;;;;;2.35;2.03;;;;;;;;;;5014710;28;20026;-80
2023/08/11 10:59:28;;;;;;;3.15;2.40;;;;;;;;;;5016085;28;20055;-78
2023/08/11 11:01:56;;;;;;;4.65;1.90;;;;;;;;;;5001578;28;20021;-79
2023/08/11 11:04:26;;;;;;;2.97;2.03;;;;;;;;;;5029596;28;20041;-80
2023/08/11 11:06:53;;;;;;;2.63;2.42;;;;;;;;;;5031064;28;20029;-79
2023/08/11 11:09:19;;;;;;;2.92;2.20;;;;;;;;;;5049346;28;20033;-78
2023/08/11 11:11:46;;;;;;;2.38;2.17;;;;;;;;;;5049185;28;20556;-77
2023/08/11 11:14:13;;;;;;;4.20;2.78;;;;;;;;;;5033124;28;20076;-78
2023/08/11 11:16:44;;;;;;;4.20;2.17;;;;;;;;;;5030355;28;20032;-78
2023/08/11 11:19:13;;;;;;;3.78;2.25;;;;;;;;;;5012280;28;20191;-78
2023/08/11 11:21:40;;;;;;;6.22;1.75;;;;;;;;;;5031150;28;20017;-77
2023/08/11 11:24:07;;;;;;;3.30;2.55;;;;;;;;;;5046738;28;20463;-76
2023/08/11 11:26:33;;;;;;;3.63;2.10;;;;;;;;;;5031584;28;20057;-78
2023/08/11 11:29:31;;;;;;;4.07;2.25;;;;;;;;;;5032209;28;20374;-79
2023/08/11 11:32:15;;;;;;;3.22;2.10;;;;;;;;;;5032591;28;20028;-77
2023/08/11 11:34:45;;;;;;;4.97;2.20;;;;;;;;;;5050469;28;20358;-78
2023/08/11 11:37:12;;;;;;;2.10;1.90;;;;;;;;;;5033762;28;20036;-80
2023/08/11 11:39:38;;;;;;;4.88;2.20;;;;;;;;;;5052020;28;20033;-77
2023/08/11 11:42:06;;;;;;;3.22;2.10;;;;;;;;;;5050691;28;20035;-77
2023/08/11 11:44:38;;;;;;;2.40;1.83;;;;;;;;;;5027906;28;20029;-78
2023/08/11 11:47:07;;;;;;;4.57;1.98;;;;;;;;;;5034853;28;20036;-79
2023/08/11 11:49:35;;;;;;;3.60;2.25;;;;;;;;;;5034814;28;20037;-79
2023/08/11 11:52:03;;;;;;;5.07;1.95;;;;;;;;;;5034095;28;20052;-80
2023/08/11 11:54:33;;;;;;;5.82;4.13;;;;;;;;;;5016846;28;20079;-80
2023/08/11 11:57:05;;;;;;;2.60;2.25;;;;;;;;;;5018611;28;20508;-81
2023/08/11 11:59:33;;;;;;;6.07;2.63;;;;;;;;;;5056168;28;20048;-78
2023/08/11 12:02:02;;;;;;;6.22;2.50;;;;;;;;;;5041418;28;20048;-81
2023/08/11 12:04:28;;;;;;;4.30;2.78;;;;;;;;;;5044151;28;20020;-81
2023/08/11 12:06:58;;;;;;;3.55;1.90;;;;;;;;;;5072186;28;20132;-79
2023/08/11 12:09:26;;;;;;;2.58;2.13;;;;;;;;;;5029998;28;20029;-79
2023/08/11 12:11:55;;;;;;;3.15;2.38;;;;;;;;;;5014057;28;20208;-80
2023/08/11 12:14:20;;;;;;;3.00;2.40;;;;;;;;;;5031544;28;20496;-81
2023/08/11 12:16:49;;;;;;;2.40;2.10;;;;;;;;;;5030452;28;20064;-80
2023/08/11 12:19:16;;;;;;;2.72;2.08;;;;;;;;;;5030954;28;20092;-78
2023/08/11 12:21:43;;;;;;;5.55;2.42;;;;;;;;;;5012862;28;20025;-79
2023/08/11 12:24:16;;;;;;;3.40;1.90;;;;;;;;;;5029489;28;20592;-78
2023/08/11 12:26:48;;;;;;;5.47;2.05;;;;;;;;;;5030934;28;20029;-78
2023/08/11 12:29:14;;;;;;;3.83;2.35;;;;;;;;;;5013754;28;20033;-81
2023/08/11 12:31:40;;;;;;;5.25;1.85;;;;;;;;;;5030976;28;20497;-79
2023/08/11 12:34:09;;;;;;;2.95;2.03;;;;;;;;;;5030835;28;20580;-80
2023/08/11 12:36:45;;;;;;;3.13;2.20;;;;;;;;;;5011059;28;20029;-81
2023/08/11 12:39:10;;;;;;;4.68;2.15;;;;;;;;;;5045259;28;20029;-80
2023/08/11 12:41:38;;;;;;;2.92;2.17;;;;;;;;;;5049895;28;20029;-79
2023/08/11 12:44:06;;;;;;;4.00;2.00;;;;;;;;;;5034080;28;20075;-78
2023/08/11 12:46:36;;;;;;;4.47;1.98;;;;;;;;;;5014103;28;20036;-80
2023/08/11 12:49:02;;;;;;;4.70;2.10;;;;;;;;;;5044454;28;20021;-78
2023/08/11 12:51:28;;;;;;;3.33;2.00;;;;;;;;;;5032694;28;20052;-78
2023/08/11 12:53:53;;;;;;;4.85;2.22;;;;;;;;;;5049513;28;20067;-77
2023/08/11 12:56:19;;;;;;;4.53;2.17;;;;;;;;;;5049637;28;20053;-79
2023/08/11 12:58:47;;;;;;;2.58;1.80;;;;;;;;;;5018905;28;20136;-76
2023/08/11 13:01:18;;;;;;;4.10;2.00;;;;;;;;;;5012562;28;20529;-78
2023/08/11 13:03:51;;;;;;;4.05;1.95;;;;;;;;;;5025238;28;20052;-78
2023/08/11 13:06:18;;;;;;;3.05;1.90;;;;;;;;;;5051539;28;20028;-79
2023/08/11 13:08:44;;;;;;;2.90;2.13;;;;;;;;;;5039747;28;20056;-77
2023/08/11 13:11:09;;;;;;;5.35;2.70;;;;;;;;;;5013151;28;20385;-76
2023/08/11 13:13:37;;;;;;;2.60;2.10;;;;;;;;;;5041503;28;20025;-82
2023/08/11 13:16:04;;;;;;;4.93;2.30;;;;;;;;;;5036826;28;20025;-80
2023/08/11 13:18:31;;;;;;;2.28;2.08;;;;;;;;;;5046621;28;20029;-79
2023/08/11 13:20:58;;;;;;;6.35;2.50;;;;;;;;;;5033341;28;20033;-82
2023/08/11 13:23:31;;;;;;;4.65;2.30;;;;;;;;;;5043296;28;20032;-80
2023/08/11 13:26:01;;;;;;;2.08;1.85;;;;;;;;;;5033226;28;20065;-86
2023/08/11 13:28:32;;;;;;;3.60;2.10;;;;;;;;;;5033729;28;20060;-82
2023/08/11 13:30:59;;;;;;;3.35;2.05;;;;;;;;;;5034701;28;20056;-81
2023/08/11 13:33:24;;;;;;;10.82;2.65;;;;;;;;;;5017789;28;20034;-77
2023/08/11 13:35:50;;;;;;;5.30;1.98;;;;;;;;;;5014510;28;20075;-82
2023/08/11 13:38:16;;;;;;;8.63;3.25;;;;;;;;;;5016336;28;20022;-84
2023/08/11 13:40:45;;;;;;;2.63;1.92;;;;;;;;;;5014741;28;20028;-83
2023/08/11 13:43:15;;;;;;;2.95;1.90;;;;;;;;;;5017611;28;20034;-82
2023/08/11 13:45:44;;;;;;;3.08;1.80;;;;;;;;;;5006531;28;20018;-82
2023/08/11 13:48:10;;;;;;;6.97;2.60;;;;;;;;;;5006723;28;20054;-78
2023/08/11 13:50:48;;;;;;;9.80;2.25;;;;;;;;;;5026147;28;20092;-84
2023/08/11 13:53:14;;;;;;;2.38;1.55;;;;;;;;;;5009971;28;20049;-80
2023/08/11 13:55:43;;;;;;;3.38;2.10;;;;;;;;;;5009978;28;20026;-81
2023/08/11 13:58:09;;;;;;;4.10;2.50;;;;;;;;;;5024812;28;20034;-81
2023/08/11 14:00:38;;;;;;;5.50;2.20;;;;;;;;;;5024712;28;20203;-82
2023/08/11 14:03:08;;;;;;;9.27;2.40;;;;;;;;;;5023176;28;20097;-83
2023/08/11 14:05:34;;;;;;;3.28;1.90;;;;;;;;;;5024956;28;20043;-81
2023/08/11 14:08:06;;;;;;;3.03;1.95;;;;;;;;;;5010141;28;20026;-80
2023/08/11 14:10:33;;;;;;;2.63;1.90;;;;;;;;;;5006731;28;20109;-81
2023/08/11 14:13:07;;;;;;;4.18;1.95;;;;;;;;;;5008200;28;20038;-81
2023/08/11 14:15:38;;;;;;;3.17;1.77;;;;;;;;;;5002262;28;20022;-84
2023/08/11 14:18:14;;;;;;;5.68;1.88;;;;;;;;;;4997183;28;20042;-81
2023/08/11 14:20:49;;;;;;;2.67;1.80;;;;;;;;;;4997015;28;20508;-84
2023/08/11 14:23:20;;;;;;;2.95;1.80;;;;;;;;;;5013453;28;20030;-83
2023/08/11 14:25:47;;;;;;;3.22;2.05;;;;;;;;;;4996738;28;20152;-82
2023/08/11 14:28:20;;;;;;;3.35;1.90;;;;;;;;;;4995683;28;20034;-83
2023/08/11 14:30:49;;;;;;;2.53;1.50;;;;;;;;;;5012405;28;20058;-85
2023/08/11 14:33:15;;;;;;;4.97;2.20;;;;;;;;;;5013440;28;20026;-81
2023/08/11 14:35:44;;;;;;;5.18;1.70;;;;;;;;;;5013487;28;20038;-84
2023/08/11 14:38:10;;;;;;;4.85;2.13;;;;;;;;;;4996259;28;20450;-81
2023/08/11 14:40:36;;;;;;;3.60;1.80;;;;;;;;;;4996230;28;20085;-81
2023/08/11 14:43:02;;;;;;;2.38;1.75;;;;;;;;;;5014138;28;20390;-82
2023/08/11 14:45:28;;;;;;;1.55;1.40;;;;;;;;;;4998411;28;20430;-83